Time;durP1;ratioP1;P1;durP2;ratioP2;P2;SDS_P1;SDS_P2;PMS_P1;PMS_P2;Temp;Humidity;BMP_temperature;BMP_pressure;BME280_temperature;BME280_humidity;BME280_pressure;Samples;Min_cycle;Max_cycle;Signal;HPM_P1;HPM_P2
2024/01/07 00:00:02;;;;;;;4.00;2.70;;;11.50;99.90;;;;;;5096208;28;20019;-43
2024/01/07 00:02:27;;;;;;;3.53;3.15;;;11.40;99.90;;;;;;5095887;28;20054;-44
2024/01/07 00:04:53;;;;;;;3.33;2.88;;;11.40;99.90;;;;;;5095046;28;20043;-44
2024/01/07 00:07:20;;;;;;;3.47;2.90;;;11.40;99.90;;;;;;5094900;28;20077;-44
2024/01/07 00:09:46;;;;;;;4.35;3.00;;;11.50;99.90;;;;;;5094561;28;20359;-43
2024/01/07 00:12:11;;;;;;;3.30;2.70;;;11.40;99.90;;;;;;5095751;28;20027;-44
2024/01/07 00:14:37;;;;;;;3.30;2.80;;;11.40;99.90;;;;;;5094200;28;20026;-44
2024/01/07 00:17:03;;;;;;;4.15;3.38;;;11.40;99.90;;;;;;5095694;28;20020;-44
2024/01/07 00:19:31;;;;;;;3.42;2.80;;;11.40;99.90;;;;;;5094653;28;20095;-45
2024/01/07 00:21:57;;;;;;;3.47;2.88;;;11.40;99.90;;;;;;5094942;28;20057;-44
2024/01/07 00:24:25;;;;;;;4.05;2.97;;;11.40;99.90;;;;;;5094566;28;20035;-45
2024/01/07 00:26:51;;;;;;;3.65;3.13;;;11.40;99.90;;;;;;5094438;28;20036;-45
2024/01/07 00:29:16;;;;;;;3.38;2.72;;;11.40;99.90;;;;;;5094937;28;20043;-45
2024/01/07 00:31:42;;;;;;;3.45;2.85;;;11.40;99.90;;;;;;5094079;28;20363;-45
2024/01/07 00:34:08;;;;;;;2.92;2.40;;;11.40;99.90;;;;;;5094119;28;20043;-44
2024/01/07 00:36:33;;;;;;;3.53;2.78;;;11.40;99.90;;;;;;5094116;28;20021;-45
2024/01/07 00:38:59;;;;;;;3.42;2.85;;;11.40;99.90;;;;;;5093957;28;20020;-45
2024/01/07 00:41:24;;;;;;;3.78;3.13;;;11.40;99.90;;;;;;5094989;28;20028;-43
2024/01/07 00:43:50;;;;;;;3.50;2.97;;;11.40;99.90;;;;;;5094590;28;20020;-44
2024/01/07 00:46:16;;;;;;;4.20;3.17;;;11.40;99.90;;;;;;5093713;28;20020;-45
2024/01/07 00:48:41;;;;;;;4.78;3.30;;;11.40;99.90;;;;;;5093797;28;20500;-44
2024/01/07 00:51:07;;;;;;;3.90;2.97;;;11.40;99.90;;;;;;5094952;28;20051;-44
2024/01/07 00:53:33;;;;;;;3.92;3.33;;;11.40;99.90;;;;;;5094553;28;20420;-45
2024/01/07 00:55:58;;;;;;;3.75;2.88;;;11.40;99.90;;;;;;5093774;28;20085;-44
2024/01/07 00:58:24;;;;;;;3.78;3.10;;;11.40;99.90;;;;;;5093688;28;20431;-45
2024/01/07 01:00:50;;;;;;;3.72;2.97;;;11.40;99.90;;;;;;5094291;28;20470;-45
2024/01/07 01:03:16;;;;;;;3.70;3.17;;;11.40;99.90;;;;;;5094047;28;20474;-44
2024/01/07 01:05:42;;;;;;;3.92;3.17;;;11.40;99.90;;;;;;5094681;28;20080;-45
2024/01/07 01:08:07;;;;;;;4.00;2.88;;;11.40;99.90;;;;;;5093801;28;20247;-45
2024/01/07 01:10:33;;;;;;;5.07;3.60;;;11.40;99.90;;;;;;5093979;28;20031;-44
2024/01/07 01:12:59;;;;;;;4.60;3.28;;;11.40;99.90;;;;;;5093182;28;20024;-44
2024/01/07 01:15:24;;;;;;;4.28;3.20;;;11.40;99.90;;;;;;5093472;28;20089;-44
2024/01/07 01:17:50;;;;;;;4.22;3.20;;;11.40;99.90;;;;;;5094227;28;20020;-45
2024/01/07 01:20:16;;;;;;;4.07;3.22;;;11.40;99.90;;;;;;5093773;28;20024;-45
2024/01/07 01:22:41;;;;;;;3.72;3.03;;;11.40;99.90;;;;;;5093191;28;20043;-45
2024/01/07 01:25:07;;;;;;;3.90;3.10;;;11.40;99.90;;;;;;5094282;28;20390;-45
2024/01/07 01:27:33;;;;;;;3.70;3.00;;;11.40;99.90;;;;;;5094287;28;20024;-44
2024/01/07 01:29:59;;;;;;;3.78;3.17;;;11.40;99.90;;;;;;5093053;28;20024;-44
2024/01/07 01:32:25;;;;;;;4.18;3.25;;;11.40;99.90;;;;;;5094201;28;20031;-44
2024/01/07 01:34:51;;;;;;;4.50;3.55;;;11.40;99.90;;;;;;5093982;28;20474;-46
2024/01/07 01:37:16;;;;;;;4.38;3.42;;;11.40;99.90;;;;;;5095035;28;20433;-45
2024/01/07 01:39:42;;;;;;;3.85;3.08;;;11.40;99.90;;;;;;5093118;28;20020;-44
2024/01/07 01:42:08;;;;;;;4.45;3.20;;;11.40;99.90;;;;;;5092706;28;20031;-45
2024/01/07 01:44:34;;;;;;;4.45;3.40;;;11.40;99.90;;;;;;5092785;28;20028;-45
2024/01/07 01:47:00;;;;;;;4.53;3.30;;;11.40;99.90;;;;;;5092705;28;20030;-45
2024/01/07 01:49:27;;;;;;;5.70;3.80;;;11.40;99.90;;;;;;5092691;28;20028;-44
2024/01/07 01:51:53;;;;;;;4.57;3.30;;;11.40;99.90;;;;;;5092650;28;20393;-45
2024/01/07 01:54:20;;;;;;;4.40;3.53;;;11.40;99.90;;;;;;5092900;28;20024;-44
2024/01/07 01:56:46;;;;;;;4.40;3.20;;;11.40;99.90;;;;;;5092540;28;20057;-44
2024/01/07 01:59:14;;;;;;;4.32;3.33;;;11.40;99.90;;;;;;5092520;28;20024;-45
2024/01/07 02:01:39;;;;;;;4.10;3.10;;;11.40;99.90;;;;;;5092408;28;20032;-45
2024/01/07 02:04:05;;;;;;;5.22;3.75;;;11.40;99.90;;;;;;5092312;28;20027;-45
2024/01/07 02:06:31;;;;;;;4.68;3.65;;;11.40;99.90;;;;;;5093333;28;20031;-45
2024/01/07 02:08:57;;;;;;;4.38;3.47;;;11.40;99.90;;;;;;5092134;28;20130;-45
2024/01/07 02:11:23;;;;;;;4.30;3.53;;;11.40;99.90;;;;;;5092350;28;20028;-44
2024/01/07 02:13:48;;;;;;;4.85;3.67;;;11.40;99.90;;;;;;5092076;28;20477;-45
2024/01/07 02:16:15;;;;;;;4.82;3.67;;;11.40;99.90;;;;;;5093692;28;20016;-43
2024/01/07 02:18:42;;;;;;;4.15;3.40;;;11.40;99.90;;;;;;5092158;28;20424;-44
2024/01/07 02:21:09;;;;;;;4.93;3.67;;;11.40;99.90;;;;;;5092600;28;20020;-45
2024/01/07 02:23:35;;;;;;;4.25;3.40;;;11.40;99.90;;;;;;5092799;28;20474;-44
2024/01/07 02:26:01;;;;;;;4.50;3.50;;;11.40;99.90;;;;;;5092652;28;20061;-43
2024/01/07 02:28:27;;;;;;;6.43;4.00;;;11.40;99.90;;;;;;5091980;28;20485;-45
2024/01/07 02:30:53;;;;;;;4.13;3.38;;;11.30;99.90;;;;;;5093160;28;20111;-45
2024/01/07 02:33:18;;;;;;;4.88;3.65;;;11.30;99.90;;;;;;5091901;28;20039;-45
2024/01/07 02:35:44;;;;;;;4.55;3.75;;;11.40;99.90;;;;;;5091741;28;20099;-44
2024/01/07 02:38:09;;;;;;;4.15;3.40;;;11.40;99.90;;;;;;5092162;28;20478;-43
2024/01/07 02:40:35;;;;;;;4.60;3.25;;;11.30;99.90;;;;;;5092667;28;20035;-45
2024/01/07 02:43:00;;;;;;;4.43;3.28;;;11.30;99.90;;;;;;5092800;28;20023;-44
2024/01/07 02:45:26;;;;;;;4.93;3.42;;;11.40;99.90;;;;;;5092408;28;20031;-45
2024/01/07 02:47:53;;;;;;;4.55;3.60;;;11.30;99.90;;;;;;5092324;28;20032;-45
2024/01/07 02:50:19;;;;;;;4.25;3.55;;;11.30;99.90;;;;;;5091722;28;20031;-44
2024/01/07 02:52:45;;;;;;;4.25;3.13;;;11.30;99.90;;;;;;5092183;28;20015;-44
2024/01/07 02:55:11;;;;;;;4.03;3.10;;;11.30;99.90;;;;;;5092761;28;20045;-44
2024/01/07 02:57:36;;;;;;;3.83;3.25;;;11.40;99.90;;;;;;5092526;28;20020;-44
2024/01/07 03:00:02;;;;;;;3.65;3.17;;;11.40;99.90;;;;;;5092212;28;20490;-44
2024/01/07 03:02:28;;;;;;;5.03;3.30;;;11.40;99.90;;;;;;5093472;28;20074;-44
2024/01/07 03:04:54;;;;;;;4.90;3.50;;;11.40;99.90;;;;;;5092206;28;20048;-44
2024/01/07 03:07:21;;;;;;;4.80;3.13;;;11.40;99.90;;;;;;5092829;28;20506;-44
2024/01/07 03:09:51;;;;;;;3.78;2.88;;;11.40;99.90;;;;;;5092561;28;20109;-45
2024/01/07 03:12:17;;;;;;;4.88;3.45;;;11.50;99.90;;;;;;5093759;28;20055;-44
2024/01/07 03:14:43;;;;;;;4.40;3.38;;;11.50;99.90;;;;;;5092947;28;20040;-45
2024/01/07 03:17:12;;;;;;;3.95;3.20;;;11.50;99.90;;;;;;5091433;28;20112;-45
2024/01/07 03:19:38;;;;;;;4.70;3.38;;;11.60;99.90;;;;;;5092058;28;20023;-45
2024/01/07 03:22:06;;;;;;;3.65;2.80;;;11.60;99.90;;;;;;5091926;28;20059;-45
2024/01/07 03:24:31;;;;;;;4.43;3.58;;;11.60;99.90;;;;;;5093064;28;20035;-44
2024/01/07 03:26:57;;;;;;;3.97;3.20;;;11.60;99.90;;;;;;5091638;28;20028;-44
2024/01/07 03:29:22;;;;;;;3.88;3.08;;;11.60;99.90;;;;;;5092671;28;20177;-44
2024/01/07 03:31:48;;;;;;;3.80;3.05;;;11.70;99.90;;;;;;5094808;28;20047;-43
2024/01/07 03:34:14;;;;;;;3.58;2.95;;;11.70;99.90;;;;;;5095690;28;20032;-45
2024/01/07 03:36:39;;;;;;;4.10;3.60;;;11.70;99.90;;;;;;5095246;28;20442;-44
2024/01/07 03:39:05;;;;;;;3.90;3.03;;;11.70;99.90;;;;;;5095210;28;20024;-45
2024/01/07 03:41:30;;;;;;;3.22;2.92;;;11.70;99.90;;;;;;5095173;28;20024;-45
2024/01/07 03:43:56;;;;;;;3.95;3.40;;;11.70;99.90;;;;;;5095865;28;20016;-45
2024/01/07 03:46:22;;;;;;;4.03;3.17;;;11.70;99.90;;;;;;5096883;28;20059;-44
2024/01/07 03:48:47;;;;;;;4.00;3.03;;;11.70;99.90;;;;;;5096508;28;20117;-44
2024/01/07 03:51:13;;;;;;;5.07;3.72;;;11.70;99.90;;;;;;5095564;28;20027;-45
2024/01/07 03:53:39;;;;;;;4.25;3.20;;;11.70;99.90;;;;;;5095085;28;20066;-45
2024/01/07 03:56:05;;;;;;;4.78;3.60;;;11.70;99.90;;;;;;5096132;28;20034;-45
2024/01/07 03:58:31;;;;;;;4.28;3.50;;;11.80;99.90;;;;;;5094909;28;20024;-45
2024/01/07 04:00:56;;;;;;;4.20;3.53;;;11.70;99.90;;;;;;5095582;28;20024;-45
2024/01/07 04:03:22;;;;;;;4.13;3.45;;;11.70;99.90;;;;;;5095706;28;20426;-44
2024/01/07 04:05:47;;;;;;;5.47;3.55;;;11.80;99.90;;;;;;5095627;28;20024;-45
2024/01/07 04:08:15;;;;;;;4.60;3.42;;;11.70;99.90;;;;;;5096013;28;20496;-44
2024/01/07 04:10:41;;;;;;;5.40;3.60;;;11.70;99.90;;;;;;5095391;28;20048;-44
2024/01/07 04:13:07;;;;;;;5.28;3.78;;;11.70;99.90;;;;;;5096266;28;20441;-43
2024/01/07 04:15:33;;;;;;;4.63;3.65;;;11.70;99.90;;;;;;5094604;28;20094;-44
2024/01/07 04:18:03;;;;;;;5.30;4.03;;;11.70;99.90;;;;;;5095015;28;20038;-44
2024/01/07 04:20:28;;;;;;;4.35;3.30;;;11.70;99.90;;;;;;5096007;28;20092;-45
2024/01/07 04:22:54;;;;;;;4.25;3.63;;;11.70;99.90;;;;;;5096245;28;20485;-45
2024/01/07 04:25:19;;;;;;;5.80;4.03;;;11.70;99.90;;;;;;5094447;28;20043;-45
2024/01/07 04:27:45;;;;;;;5.40;4.25;;;11.70;99.90;;;;;;5094256;28;20501;-44
2024/01/07 04:30:11;;;;;;;4.40;3.60;;;11.70;99.90;;;;;;5094282;28;20012;-44
2024/01/07 04:32:36;;;;;;;4.75;3.88;;;11.70;99.90;;;;;;5092813;28;20490;-44
2024/01/07 04:35:02;;;;;;;4.43;3.53;;;11.70;99.90;;;;;;5092984;28;20478;-45
2024/01/07 04:37:28;;;;;;;4.70;4.03;;;11.70;99.90;;;;;;5093855;28;20030;-45
2024/01/07 04:39:53;;;;;;;5.10;3.95;;;11.70;99.90;;;;;;5093137;28;20048;-44
2024/01/07 04:42:19;;;;;;;5.25;4.03;;;11.60;99.90;;;;;;5092740;28;20054;-45
2024/01/07 04:44:45;;;;;;;4.90;3.97;;;11.70;99.90;;;;;;5095395;28;20375;-44
2024/01/07 04:47:28;;;;;;;4.60;3.95;;;11.70;99.90;;;;;;5094342;28;20035;-45
2024/01/07 04:49:54;;;;;;;4.45;3.88;;;11.70;99.90;;;;;;5092801;28;20074;-44
2024/01/07 04:52:19;;;;;;;4.70;3.88;;;11.70;99.90;;;;;;5092665;28;20028;-44
2024/01/07 04:54:45;;;;;;;4.63;3.85;;;11.70;99.90;;;;;;5092818;28;20055;-45
2024/01/07 04:57:11;;;;;;;4.70;3.67;;;11.70;99.90;;;;;;5092927;28;20448;-43
2024/01/07 04:59:37;;;;;;;5.07;3.75;;;11.60;99.90;;;;;;5092473;28;20024;-45
2024/01/07 05:02:03;;;;;;;4.85;3.45;;;11.60;99.90;;;;;;5093143;28;20051;-45
2024/01/07 05:04:28;;;;;;;4.40;3.55;;;11.60;99.90;;;;;;5092472;28;20418;-44
2024/01/07 05:06:54;;;;;;;5.00;4.22;;;11.60;99.90;;;;;;5094763;28;20504;-45
2024/01/07 05:09:19;;;;;;;4.03;3.58;;;11.60;99.90;;;;;;5092384;28;20102;-44
2024/01/07 05:11:45;;;;;;;4.30;3.83;;;11.60;99.90;;;;;;5092333;28;20432;-44
2024/01/07 05:14:11;;;;;;;3.80;3.22;;;11.60;99.90;;;;;;5092211;28;20024;-45
2024/01/07 05:16:37;;;;;;;5.30;4.50;;;11.60;99.90;;;;;;5092358;28;20028;-45
2024/01/07 05:19:03;;;;;;;5.30;4.18;;;11.60;99.90;;;;;;5092237;28;20020;-44
2024/01/07 05:21:29;;;;;;;4.80;3.83;;;11.60;99.90;;;;;;5092231;28;20482;-45
2024/01/07 05:23:54;;;;;;;4.97;3.72;;;11.60;99.90;;;;;;5051631;28;1181053;-43
2024/01/07 05:26:20;;;;;;;5.30;3.75;;;11.60;99.90;;;;;;5094674;28;20450;-45
2024/01/07 05:28:46;;;;;;;6.13;3.83;;;11.60;99.90;;;;;;5093219;28;20028;-45
2024/01/07 05:31:16;;;;;;;4.30;3.53;;;11.60;99.90;;;;;;5094046;28;20039;-45
2024/01/07 05:33:45;;;;;;;4.80;3.85;;;11.60;99.90;;;;;;5094335;28;20028;-45
2024/01/07 05:36:12;;;;;;;3.67;3.15;;;11.60;99.90;;;;;;5094235;28;20424;-45
2024/01/07 05:38:38;;;;;;;4.65;3.80;;;11.60;99.90;;;;;;5092961;28;20020;-45
2024/01/07 05:41:04;;;;;;;5.00;3.30;;;11.50;99.90;;;;;;5093726;28;20069;-44
2024/01/07 05:43:30;;;;;;;5.53;4.00;;;11.50;99.90;;;;;;5093448;28;20024;-43
2024/01/07 05:45:55;;;;;;;4.00;3.45;;;11.50;99.90;;;;;;5093687;28;20032;-45
2024/01/07 05:48:22;;;;;;;4.43;3.65;;;11.50;99.90;;;;;;5092685;28;20031;-45
2024/01/07 05:50:48;;;;;;;4.15;3.33;;;11.50;99.90;;;;;;5094527;28;20028;-45
2024/01/07 05:53:14;;;;;;;4.75;3.70;;;11.50;99.90;;;;;;5092597;28;20039;-45
2024/01/07 05:55:40;;;;;;;6.45;3.75;;;11.50;99.90;;;;;;5093027;28;20028;-44
2024/01/07 05:58:05;;;;;;;4.65;3.72;;;11.50;99.90;;;;;;5092869;28;20031;-44
2024/01/07 06:00:31;;;;;;;5.43;3.78;;;11.50;99.90;;;;;;5092606;28;20021;-44
2024/01/07 06:02:57;;;;;;;4.78;3.72;;;11.50;99.90;;;;;;5092337;28;20386;-45
2024/01/07 06:05:23;;;;;;;4.18;3.38;;;11.50;99.90;;;;;;5092973;28;20142;-44
2024/01/07 06:07:49;;;;;;;4.40;3.75;;;11.50;99.90;;;;;;5093449;28;20027;-45
2024/01/07 06:10:15;;;;;;;3.70;3.35;;;11.50;99.90;;;;;;5092686;28;20028;-45
2024/01/07 06:12:40;;;;;;;4.05;3.20;;;11.50;99.90;;;;;;5093891;28;20055;-45
2024/01/07 06:15:06;;;;;;;4.72;3.65;;;11.50;99.90;;;;;;5092550;28;20024;-45
2024/01/07 06:17:33;;;;;;;4.72;3.63;;;11.50;99.90;;;;;;5092204;28;20050;-45
2024/01/07 06:19:58;;;;;;;3.90;3.38;;;11.50;99.90;;;;;;5092865;28;20419;-45
2024/01/07 06:22:24;;;;;;;4.57;3.42;;;11.50;99.90;;;;;;5092218;28;20070;-44
2024/01/07 06:24:49;;;;;;;4.00;3.50;;;11.50;99.90;;;;;;5091995;28;20040;-45
2024/01/07 06:27:15;;;;;;;4.00;3.05;;;11.50;99.90;;;;;;5093044;28;20052;-45
2024/01/07 06:29:40;;;;;;;4.80;3.22;;;11.50;99.90;;;;;;5092814;28;20105;-44
2024/01/07 06:32:06;;;;;;;5.97;3.20;;;11.50;99.90;;;;;;5092757;28;20489;-44
2024/01/07 06:34:33;;;;;;;4.47;3.47;;;11.40;99.90;;;;;;5092717;28;20081;-45
2024/01/07 06:36:59;;;;;;;4.03;3.10;;;11.40;99.90;;;;;;5092647;28;20024;-45
2024/01/07 06:39:26;;;;;;;4.10;3.30;;;11.40;99.90;;;;;;5091791;28;20012;-45
2024/01/07 06:41:52;;;;;;;4.45;3.30;;;11.40;99.90;;;;;;5092385;28;20155;-44
2024/01/07 06:44:18;;;;;;;3.78;3.25;;;11.40;99.90;;;;;;5091621;28;20194;-45
2024/01/07 06:46:43;;;;;;;4.10;3.28;;;11.40;99.90;;;;;;5092445;28;20085;-44
2024/01/07 06:49:09;;;;;;;4.35;3.60;;;11.40;99.90;;;;;;5092338;28;20035;-44
2024/01/07 06:51:35;;;;;;;4.45;3.33;;;11.40;99.90;;;;;;5091630;28;20028;-45
2024/01/07 06:54:00;;;;;;;5.95;3.63;;;11.40;99.90;;;;;;5091587;28;20033;-43
2024/01/07 06:56:26;;;;;;;4.53;3.47;;;11.40;99.90;;;;;;5091539;28;20043;-45
2024/01/07 06:58:52;;;;;;;3.92;3.10;;;11.40;99.90;;;;;;5091406;28;20024;-44
2024/01/07 07:01:22;;;;;;;3.88;3.20;;;11.40;99.90;;;;;;5091683;28;20422;-44
2024/01/07 07:03:49;;;;;;;4.40;3.22;;;11.40;99.90;;;;;;5091591;28;20432;-45
2024/01/07 07:06:15;;;;;;;3.45;2.90;;;11.40;99.90;;;;;;5091563;28;20024;-45
2024/01/07 07:08:40;;;;;;;4.15;3.17;;;11.40;99.90;;;;;;5091931;28;20024;-45
2024/01/07 07:11:07;;;;;;;4.95;3.28;;;11.40;99.90;;;;;;5092195;28;20103;-43
2024/01/07 07:13:33;;;;;;;4.78;3.38;;;11.40;99.90;;;;;;5091310;28;20032;-44
2024/01/07 07:15:59;;;;;;;4.20;3.38;;;11.40;99.90;;;;;;5091977;28;20040;-44
2024/01/07 07:18:25;;;;;;;3.33;2.80;;;11.40;99.90;;;;;;5092289;28;20020;-44
2024/01/07 07:20:51;;;;;;;3.47;3.03;;;11.40;99.90;;;;;;5092310;28;20384;-44
2024/01/07 07:23:17;;;;;;;3.85;3.10;;;11.40;99.90;;;;;;5092212;28;20016;-45
2024/01/07 07:25:42;;;;;;;3.50;2.72;;;11.40;99.90;;;;;;5091690;28;20482;-45
2024/01/07 07:28:08;;;;;;;4.00;3.40;;;11.40;99.90;;;;;;5091174;28;20035;-44
2024/01/07 07:30:34;;;;;;;4.13;3.10;;;11.40;99.90;;;;;;5091243;28;20106;-43
2024/01/07 07:32:59;;;;;;;3.50;2.90;;;11.40;99.90;;;;;;5091240;28;20039;-45
2024/01/07 07:35:25;;;;;;;3.33;2.90;;;11.30;99.90;;;;;;5092019;28;20060;-44
2024/01/07 07:37:50;;;;;;;3.50;2.85;;;11.40;99.90;;;;;;5091034;28;20028;-44
2024/01/07 07:40:16;;;;;;;4.05;3.05;;;11.40;99.90;;;;;;5092076;28;20024;-43
2024/01/07 07:42:42;;;;;;;4.55;3.33;;;11.30;99.90;;;;;;5091285;28;20359;-45
2024/01/07 07:45:08;;;;;;;4.88;3.20;;;11.40;99.90;;;;;;5091701;28;20098;-45
2024/01/07 07:47:33;;;;;;;4.40;2.97;;;11.30;99.90;;;;;;5091231;28;20054;-45
2024/01/07 07:49:59;;;;;;;3.33;2.75;;;11.30;99.90;;;;;;5091562;28;20055;-46
2024/01/07 07:52:25;;;;;;;4.93;3.45;;;11.40;99.90;;;;;;5089610;28;20024;-44
2024/01/07 07:54:54;;;;;;;3.90;3.30;;;11.40;99.90;;;;;;5091924;28;20028;-45
2024/01/07 07:57:21;;;;;;;3.20;2.90;;;11.40;99.90;;;;;;5092098;28;20559;-42
2024/01/07 07:59:49;;;;;;;4.10;3.08;;;11.40;99.90;;;;;;5090831;28;20020;-44
2024/01/07 08:02:15;;;;;;;4.30;3.00;;;11.40;99.90;;;;;;5091938;28;20027;-45
2024/01/07 08:04:41;;;;;;;3.42;2.72;;;11.50;99.90;;;;;;5091092;28;20028;-45
2024/01/07 08:07:08;;;;;;;4.95;3.05;;;11.50;99.90;;;;;;5090940;28;20024;-43
2024/01/07 08:09:36;;;;;;;3.88;3.00;;;11.50;99.90;;;;;;5091151;28;20028;-45
2024/01/07 08:12:02;;;;;;;4.82;3.00;;;11.60;99.90;;;;;;5090852;28;20107;-44
2024/01/07 08:14:28;;;;;;;4.05;3.00;;;11.60;99.90;;;;;;5090722;28;20024;-43
2024/01/07 08:16:54;;;;;;;4.28;3.13;;;11.60;99.90;;;;;;5091314;28;20020;-43
2024/01/07 08:19:20;;;;;;;3.65;2.90;;;11.70;99.90;;;;;;5095476;28;20142;-45
2024/01/07 08:21:46;;;;;;;3.22;2.88;;;11.70;99.90;;;;;;5095350;28;20035;-45
2024/01/07 08:24:11;;;;;;;3.63;2.80;;;11.70;99.90;;;;;;5094355;28;20036;-45
2024/01/07 08:26:38;;;;;;;4.05;3.05;;;11.70;99.90;;;;;;5094751;28;20103;-45
2024/01/07 08:29:03;;;;;;;4.38;3.00;;;11.80;99.90;;;;;;5095039;28;20032;-44
2024/01/07 08:31:30;;;;;;;3.38;2.80;;;11.80;99.90;;;;;;5094338;28;20456;-45
2024/01/07 08:33:55;;;;;;;3.10;2.55;;;11.80;99.90;;;;;;5095332;28;20020;-44
2024/01/07 08:36:21;;;;;;;3.47;2.75;;;11.90;99.90;;;;;;5094858;28;20077;-44
2024/01/07 08:38:47;;;;;;;3.53;2.83;;;11.90;99.90;;;;;;5094870;28;20024;-43
2024/01/07 08:41:15;;;;;;;3.50;2.92;;;11.90;99.90;;;;;;5094661;28;20031;-45
2024/01/07 08:43:41;;;;;;;4.13;2.70;;;12.00;99.90;;;;;;5094884;28;20389;-44
2024/01/07 08:46:07;;;;;;;3.33;2.70;;;12.00;99.90;;;;;;5094942;28;20020;-45
2024/01/07 08:48:33;;;;;;;4.88;2.55;;;12.00;99.90;;;;;;5094497;28;20440;-44
2024/01/07 08:50:58;;;;;;;3.67;2.90;;;12.10;99.90;;;;;;5094989;28;20195;-44
2024/01/07 08:53:24;;;;;;;3.38;2.75;;;12.10;99.90;;;;;;5094690;28;20024;-44
2024/01/07 08:55:49;;;;;;;3.58;2.75;;;12.10;99.90;;;;;;5093806;28;20024;-45
2024/01/07 08:58:17;;;;;;;4.63;2.90;;;12.20;99.90;;;;;;5094175;28;20024;-45
2024/01/07 09:00:43;;;;;;;3.28;2.63;;;12.20;99.90;;;;;;5093825;28;20162;-45
2024/01/07 09:03:09;;;;;;;3.50;2.40;;;12.20;99.90;;;;;;5094544;28;20126;-44
2024/01/07 09:05:34;;;;;;;3.63;2.80;;;12.30;99.90;;;;;;5094597;28;20032;-45
2024/01/07 09:08:00;;;;;;;3.78;2.78;;;12.30;99.90;;;;;;5094470;28;20394;-45
2024/01/07 09:10:26;;;;;;;3.50;2.70;;;12.40;99.90;;;;;;5094099;28;20023;-44
2024/01/07 09:12:53;;;;;;;3.45;2.53;;;12.40;99.90;;;;;;5093961;28;20489;-44
2024/01/07 09:15:20;;;;;;;2.83;2.15;;;12.40;99.90;;;;;;5093422;28;20021;-45
2024/01/07 09:17:46;;;;;;;3.53;2.60;;;12.40;99.90;;;;;;5093945;28;20049;-45
2024/01/07 09:20:12;;;;;;;4.00;2.72;;;12.50;99.90;;;;;;5093271;28;20057;-44
2024/01/07 09:22:38;;;;;;;3.22;2.47;;;12.50;99.90;;;;;;5093508;28;20047;-44
2024/01/07 09:25:05;;;;;;;3.28;2.33;;;12.50;99.90;;;;;;5093254;28;20066;-45
2024/01/07 09:27:31;;;;;;;3.72;2.40;;;12.60;99.90;;;;;;5093172;28;20028;-45
2024/01/07 09:29:57;;;;;;;5.25;2.72;;;12.60;99.90;;;;;;5091760;28;20452;-45
2024/01/07 09:32:23;;;;;;;3.63;2.63;;;12.60;99.90;;;;;;5093118;28;20020;-44
2024/01/07 09:34:48;;;;;;;4.10;2.70;;;12.70;99.90;;;;;;5094096;28;20056;-44
2024/01/07 09:37:14;;;;;;;2.40;2.20;;;12.70;99.90;;;;;;5093910;28;20054;-43
2024/01/07 09:39:41;;;;;;;2.92;2.55;;;12.80;99.90;;;;;;5092934;28;20024;-45
2024/01/07 09:42:13;;;;;;;3.15;2.38;;;12.80;99.90;;;;;;5093812;28;20406;-45
2024/01/07 09:44:39;;;;;;;2.60;2.22;;;12.80;99.90;;;;;;5094967;28;20103;-45
2024/01/07 09:47:09;;;;;;;3.35;2.53;;;12.90;99.90;;;;;;5092883;28;20102;-44
2024/01/07 09:49:35;;;;;;;3.17;2.63;;;12.90;99.90;;;;;;5093640;28;20066;-45
2024/01/07 09:52:04;;;;;;;3.58;2.50;;;13.00;99.90;;;;;;5091674;28;20055;-44
2024/01/07 09:54:30;;;;;;;3.70;2.53;;;13.00;99.90;;;;;;5094201;28;20020;-44
2024/01/07 09:57:01;;;;;;;3.50;2.70;;;13.00;99.90;;;;;;5093248;28;20020;-44
2024/01/07 09:59:30;;;;;;;3.85;2.45;;;13.10;99.90;;;;;;5092836;28;20016;-45
2024/01/07 10:01:57;;;;;;;2.65;2.25;;;13.10;99.90;;;;;;5092737;28;20020;-45
2024/01/07 10:04:23;;;;;;;3.47;2.55;;;13.10;99.90;;;;;;5093686;28;20016;-45
2024/01/07 10:06:49;;;;;;;3.88;2.60;;;13.20;99.90;;;;;;5093117;28;20051;-45
2024/01/07 10:09:21;;;;;;;4.05;2.50;;;13.20;99.90;;;;;;5093818;28;20490;-45
2024/01/07 10:11:47;;;;;;;3.35;2.28;;;13.20;99.80;;;;;;5092946;28;20105;-44
2024/01/07 10:14:13;;;;;;;3.65;2.42;;;13.30;99.80;;;;;;5092329;28;20485;-45
2024/01/07 10:16:39;;;;;;;2.28;2.05;;;13.30;99.70;;;;;;5092270;28;20096;-44
2024/01/07 10:19:05;;;;;;;3.90;2.92;;;13.40;99.70;;;;;;5092178;28;20058;-45
2024/01/07 10:21:30;;;;;;;3.00;2.30;;;13.30;99.60;;;;;;5092158;28;20390;-45
2024/01/07 10:24:10;;;;;;;2.88;2.20;;;13.40;99.50;;;;;;5092626;28;20040;-45
2024/01/07 10:26:43;;;;;;;3.65;2.40;;;13.40;99.50;;;;;;5092790;28;20623;-45
2024/01/07 10:29:08;;;;;;;3.80;2.55;;;13.40;99.40;;;;;;5093610;28;20035;-45
2024/01/07 10:31:35;;;;;;;3.58;2.60;;;13.40;99.40;;;;;;5092809;28;20028;-44
2024/01/07 10:34:01;;;;;;;3.15;2.50;;;13.50;99.40;;;;;;5091693;28;20367;-45
2024/01/07 10:36:26;;;;;;;2.95;2.58;;;13.50;99.30;;;;;;5092363;28;20023;-45
2024/01/07 10:38:54;;;;;;;3.63;2.83;;;13.50;99.30;;;;;;5092083;28;20360;-45
2024/01/07 10:41:20;;;;;;;3.30;2.65;;;13.60;99.20;;;;;;5091949;28;20036;-44
2024/01/07 10:43:48;;;;;;;3.38;2.20;;;13.60;99.50;;;;;;5092742;28;20077;-45
2024/01/07 10:46:15;;;;;;;3.38;2.60;;;13.60;99.20;;;;;;5092360;28;20024;-45
2024/01/07 10:48:54;;;;;;;4.00;2.40;;;13.60;99.10;;;;;;5092387;28;20046;-45
2024/01/07 10:51:21;;;;;;;2.80;2.22;;;13.60;99.10;;;;;;5091709;28;20024;-45
2024/01/07 10:53:53;;;;;;;3.65;2.80;;;13.60;99.00;;;;;;5092342;28;20385;-45
2024/01/07 10:56:22;;;;;;;3.67;2.50;;;13.60;99.00;;;;;;5092970;28;20020;-45
2024/01/07 10:58:51;;;;;;;4.25;2.90;;;13.60;99.00;;;;;;5091506;28;20085;-45
2024/01/07 11:01:17;;;;;;;3.28;2.40;;;13.70;99.00;;;;;;5091592;28;20016;-45
2024/01/07 11:03:57;;;;;;;3.65;2.80;;;13.60;98.90;;;;;;5091801;28;20063;-45
2024/01/07 11:06:33;;;;;;;3.13;2.28;;;13.70;98.90;;;;;;5092363;28;20020;-44
2024/01/07 11:09:14;;;;;;;3.50;2.47;;;13.70;98.90;;;;;;5091488;28;20035;-44
2024/01/07 11:11:43;;;;;;;3.60;2.38;;;13.70;98.80;;;;;;5091543;28;20500;-46
2024/01/07 11:14:34;;;;;;;3.60;2.70;;;13.70;99.10;;;;;;5091279;28;20516;-45
2024/01/07 11:16:59;;;;;;;3.30;2.33;;;13.70;98.70;;;;;;5092367;28;20024;-45
2024/01/07 11:19:26;;;;;;;3.92;2.80;;;13.70;98.70;;;;;;5091346;28;20024;-44
2024/01/07 11:21:52;;;;;;;4.13;2.70;;;13.80;98.70;;;;;;5091372;28;20048;-44
2024/01/07 11:24:38;;;;;;;3.30;2.45;;;13.80;98.60;;;;;;5091235;28;20070;-44
2024/01/07 11:27:03;;;;;;;2.70;2.28;;;13.80;98.60;;;;;;5091911;28;20102;-45
2024/01/07 11:29:31;;;;;;;3.63;2.42;;;13.80;98.60;;;;;;5093507;28;20032;-45
2024/01/07 11:31:58;;;;;;;4.10;2.60;;;13.80;98.50;;;;;;5091452;28;20115;-45
2024/01/07 11:34:41;;;;;;;2.70;2.25;;;13.80;98.50;;;;;;5091342;28;20032;-45
2024/01/07 11:37:11;;;;;;;3.35;2.47;;;13.80;98.50;;;;;;5090979;28;20021;-45
2024/01/07 11:39:37;;;;;;;3.47;2.20;;;13.90;98.40;;;;;;5092357;28;20012;-45
2024/01/07 11:42:03;;;;;;;3.22;2.40;;;13.90;98.40;;;;;;5091117;28;20080;-45
2024/01/07 11:44:33;;;;;;;3.38;2.45;;;13.90;98.40;;;;;;5092125;28;20498;-45
2024/01/07 11:46:59;;;;;;;2.88;2.20;;;13.90;98.30;;;;;;5092020;28;20089;-45
2024/01/07 11:49:24;;;;;;;4.10;2.35;;;13.90;98.30;;;;;;5092941;28;20030;-45
2024/01/07 11:51:50;;;;;;;2.55;2.03;;;13.90;98.30;;;;;;5091457;28;20032;-43
2024/01/07 11:54:15;;;;;;;2.72;2.15;;;13.90;98.20;;;;;;5096264;28;20028;-44
2024/01/07 11:56:41;;;;;;;2.70;2.20;;;14.00;98.20;;;;;;5096176;28;20027;-44
2024/01/07 11:59:07;;;;;;;3.80;2.28;;;13.90;98.20;;;;;;5097114;28;20020;-44
2024/01/07 12:01:32;;;;;;;4.28;2.38;;;13.90;98.10;;;;;;5095245;28;20028;-45
2024/01/07 12:03:58;;;;;;;2.30;1.90;;;13.90;98.10;;;;;;5094894;28;20032;-45
2024/01/07 12:06:24;;;;;;;2.95;2.15;;;14.00;98.10;;;;;;5094638;28;20070;-45
2024/01/07 12:08:50;;;;;;;2.85;2.20;;;14.00;98.40;;;;;;5094655;28;20035;-45
2024/01/07 12:11:16;;;;;;;3.05;2.25;;;14.00;98.10;;;;;;5095115;28;20390;-45
2024/01/07 12:13:42;;;;;;;2.70;2.08;;;14.00;98.00;;;;;;5095365;28;20545;-45
2024/01/07 12:16:09;;;;;;;3.58;2.63;;;14.00;98.00;;;;;;5095101;28;20028;-45
2024/01/07 12:18:38;;;;;;;4.68;2.70;;;14.00;97.90;;;;;;5094547;28;20444;-45
2024/01/07 12:21:04;;;;;;;2.92;2.20;;;14.00;98.10;;;;;;5094536;28;20024;-44
2024/01/07 12:23:36;;;;;;;3.00;2.20;;;14.00;97.90;;;;;;5094304;28;20043;-44
2024/01/07 12:26:09;;;;;;;2.97;2.20;;;14.00;97.90;;;;;;5094415;28;20084;-44
2024/01/07 12:28:36;;;;;;;3.10;2.58;;;14.00;97.80;;;;;;5094639;28;20016;-45
2024/01/07 12:31:04;;;;;;;3.13;2.38;;;14.00;97.80;;;;;;5095162;28;20036;-45
2024/01/07 12:33:31;;;;;;;3.03;2.15;;;14.00;97.80;;;;;;5094749;28;20087;-45
2024/01/07 12:35:59;;;;;;;3.55;2.47;;;14.10;97.80;;;;;;5095783;28;20020;-45
2024/01/07 12:38:25;;;;;;;3.80;2.50;;;14.00;97.70;;;;;;5094999;28;20044;-44
2024/01/07 12:40:52;;;;;;;2.38;2.17;;;14.10;97.80;;;;;;5095310;28;20027;-45
2024/01/07 12:43:17;;;;;;;3.90;2.50;;;14.10;97.70;;;;;;5095065;28;20501;-45